Time;durP1;ratioP1;P1;durP2;ratioP2;P2;SDS_P1;SDS_P2;PMS_P1;PMS_P2;Temp;Humidity;BMP_temperature;BMP_pressure;BME280_temperature;BME280_humidity;BME280_pressure;Samples;Min_cycle;Max_cycle;Signal;HPM_P1;HPM_P2
2022/06/28 00:01:14;;;;;;;9.00;7.60;;;22.00;99.90;23.70;96831.00;;;;5068833;28;20223;-87
2022/06/28 00:04:05;;;;;;;7.73;6.87;;;22.00;99.90;23.80;96830.00;;;;5070583;28;20211;-88
2022/06/28 00:06:54;;;;;;;6.97;6.27;;;22.00;99.90;23.80;96838.00;;;;5070927;28;20228;-88
2022/06/28 00:09:43;;;;;;;9.37;7.37;;;22.10;99.90;23.60;96853.00;;;;5072492;28;20200;-88
2022/06/28 00:12:33;;;;;;;11.60;7.00;;;22.10;99.90;22.90;96862.00;;;;5071611;28;20211;-87
2022/06/28 00:18:28;;;;;;;11.07;7.60;;;21.90;99.90;23.40;96859.00;;;;5067060;28;20207;-89
2022/06/28 00:21:19;;;;;;;9.83;7.17;;;21.90;99.90;23.50;96865.00;;;;5071762;28;20464;-89
2022/06/28 00:24:08;;;;;;;12.30;9.13;;;21.90;99.90;23.40;96876.00;;;;5071448;28;20196;-89
2022/06/28 00:26:57;;;;;;;7.67;6.63;;;21.90;99.90;23.40;96865.00;;;;5069560;28;20483;-89
2022/06/28 00:29:46;;;;;;;11.97;6.47;;;21.90;99.90;23.50;96870.00;;;;5061622;28;20238;-88
2022/06/28 00:32:36;;;;;;;7.40;5.83;;;21.90;99.90;23.60;96871.00;;;;5061591;28;20234;-89
2022/06/28 00:35:25;;;;;;;9.63;6.70;;;21.90;99.90;23.60;96884.00;;;;5084763;28;20695;-88
2022/06/28 00:38:16;;;;;;;9.80;7.00;;;21.90;99.90;23.50;96901.00;;;;5090198;28;20215;-89
2022/06/28 00:41:04;;;;;;;10.73;6.53;;;21.90;99.90;23.10;96906.00;;;;5090342;28;20199;-88
2022/06/28 00:43:54;;;;;;;15.33;7.57;;;21.90;99.90;23.00;96915.00;;;;5090103;28;20657;-88
2022/06/28 00:46:46;;;;;;;13.00;7.27;;;21.80;99.90;22.90;96927.00;;;;5090257;28;20223;-88
2022/06/28 00:49:35;;;;;;;10.80;7.30;;;21.70;99.90;23.20;96926.00;;;;5090238;28;20199;-89
2022/06/28 00:52:24;;;;;;;8.93;7.23;;;21.70;99.90;23.30;96930.00;;;;5090802;28;20722;-88
2022/06/28 00:55:14;;;;;;;8.50;7.17;;;21.70;99.90;23.10;96950.00;;;;5090658;28;20593;-88
2022/06/28 00:58:03;;;;;;;11.87;8.37;;;21.70;99.90;23.00;96940.00;;;;5090442;28;20715;-86
2022/06/28 01:00:52;;;;;;;11.30;7.50;;;21.70;99.90;23.30;96953.00;;;;5074023;28;20245;-88
2022/06/28 01:03:41;;;;;;;11.17;7.23;;;21.70;99.90;23.00;96958.00;;;;5070143;28;20259;-87
2022/06/28 01:06:30;;;;;;;7.93;6.83;;;21.70;99.90;22.50;96962.00;;;;5071824;28;20219;-88
2022/06/28 01:09:19;;;;;;;13.60;7.10;;;21.60;99.90;22.80;96957.00;;;;5080590;28;20208;-89
2022/06/28 01:12:10;;;;;;;12.07;7.87;;;21.50;99.90;23.10;96956.00;;;;5091534;28;20204;-88
2022/06/28 01:14:59;;;;;;;12.63;7.17;;;21.50;99.90;23.30;96948.00;;;;5092905;28;20230;-89
2022/06/28 01:17:48;;;;;;;7.60;6.17;;;21.60;99.90;23.20;96949.00;;;;5075892;28;20227;-88
2022/06/28 01:20:37;;;;;;;12.13;8.80;;;21.60;99.90;22.40;96945.00;;;;5069552;28;20200;-87
2022/06/28 01:23:28;;;;;;;8.87;6.57;;;21.50;99.90;22.70;96933.00;;;;5069178;28;20610;-87
2022/06/28 01:26:20;;;;;;;13.10;7.30;;;21.50;99.90;23.10;96919.00;;;;5069816;28;20232;-88
2022/06/28 01:29:10;;;;;;;11.90;7.57;;;21.50;99.90;23.20;96891.00;;;;5066386;28;20657;-88
2022/06/28 01:31:59;;;;;;;8.33;7.13;;;21.50;99.90;23.20;96883.00;;;;5069306;28;20207;-89
2022/06/28 01:34:48;;;;;;;12.33;7.23;;;21.50;99.90;23.20;96876.00;;;;5070848;28;20200;-88
2022/06/28 01:37:37;;;;;;;9.40;7.27;;;21.60;99.90;23.10;96871.00;;;;5072030;28;20231;-87
2022/06/28 01:40:28;;;;;;;14.80;8.30;;;21.60;99.90;23.20;96874.00;;;;5069668;28;20210;-88
2022/06/28 01:43:18;;;;;;;16.93;8.20;;;21.60;99.90;23.40;96864.00;;;;5070593;28;20228;-88
2022/06/28 01:46:07;;;;;;;12.77;7.27;;;21.70;99.90;23.40;96880.00;;;;5070388;28;20227;-89
2022/06/28 01:48:56;;;;;;;11.07;7.83;;;21.70;99.90;23.10;96898.00;;;;5070052;28;20199;-86
2022/06/28 01:51:46;;;;;;;13.40;7.80;;;21.70;99.90;23.00;96905.00;;;;5072062;28;20208;-87
2022/06/28 01:54:35;;;;;;;10.57;7.43;;;21.70;99.90;23.30;96913.00;;;;5072024;28;20204;-87
2022/06/28 01:57:25;;;;;;;12.03;7.13;;;21.70;99.90;23.40;96916.00;;;;5070287;28;20514;-88
2022/06/28 02:00:15;;;;;;;10.47;6.47;;;21.70;99.90;23.50;96927.00;;;;5061021;28;20202;-88
2022/06/28 02:03:05;;;;;;;12.20;6.17;;;21.80;99.90;23.60;96930.00;;;;5070086;28;20231;-89
2022/06/28 02:05:54;;;;;;;13.77;6.57;;;21.80;99.90;23.60;96936.00;;;;5070329;28;20256;-88
2022/06/28 02:08:43;;;;;;;12.60;6.37;;;21.90;99.90;23.70;96926.00;;;;5068783;28;20207;-87
2022/06/28 02:11:31;;;;;;;7.50;4.97;;;21.90;99.90;23.80;96932.00;;;;5069963;28;20200;-89
2022/06/28 02:14:22;;;;;;;12.53;5.10;;;21.90;99.90;23.80;96937.00;;;;5069452;28;20211;-88
2022/06/28 02:17:11;;;;;;;9.10;5.20;;;22.00;99.90;23.90;96931.00;;;;5069494;28;20227;-88
2022/06/28 02:20:00;;;;;;;6.67;4.33;;;22.00;99.90;23.90;96934.00;;;;5068539;28;20211;-88
2022/06/28 02:22:49;;;;;;;8.43;4.87;;;22.10;99.90;23.90;96925.00;;;;5069858;28;20220;-88
2022/06/28 02:25:38;;;;;;;5.97;3.93;;;22.10;99.90;24.20;96942.00;;;;5089535;28;20676;-88
2022/06/28 02:28:27;;;;;;;5.47;3.50;;;22.30;99.90;24.40;96948.00;;;;5064749;28;20619;-83
2022/06/28 02:31:17;;;;;;;5.63;3.40;;;22.50;99.90;24.50;96946.00;;;;5066083;28;20211;-85
2022/06/28 02:34:06;;;;;;;3.97;2.90;;;22.60;99.90;24.50;96938.00;;;;5076193;28;20204;-86
2022/06/28 02:43:08;;;;;;;4.17;2.90;;;22.70;99.90;24.40;96951.00;;;;5085526;28;20234;-86
2022/06/28 02:45:57;;;;;;;6.20;2.90;;;22.70;99.90;24.40;96965.00;;;;5084974;28;20199;-86
2022/06/28 02:48:49;;;;;;;7.07;4.77;;;22.60;99.90;24.40;96978.00;;;;5084426;28;20207;-86
2022/06/28 02:51:38;;;;;;;6.63;2.77;;;22.60;99.90;24.40;96978.00;;;;5086790;28;20210;-85
2022/06/28 02:54:28;;;;;;;7.57;2.87;;;22.60;99.90;24.30;96973.00;;;;5085808;28;20234;-85
2022/06/28 02:57:16;;;;;;;3.43;2.13;;;22.60;99.90;24.20;96977.00;;;;5082487;28;20251;-85
2022/06/28 03:00:09;;;;;;;3.93;2.50;;;22.50;99.90;24.20;96971.00;;;;5081600;28;20723;-87
2022/06/28 03:02:58;;;;;;;6.77;2.50;;;22.50;99.90;24.10;96974.00;;;;5080664;28;20230;-86
2022/06/28 03:05:49;;;;;;;6.23;2.53;;;22.50;99.90;23.90;96971.00;;;;5084034;28;20224;-86
2022/06/28 03:08:37;;;;;;;4.17;2.30;;;22.40;99.90;23.90;96969.00;;;;5096444;28;20668;-86
2022/06/28 03:11:26;;;;;;;8.33;2.90;;;22.30;99.90;23.80;96972.00;;;;5100340;28;20680;-87
2022/06/28 03:14:15;;;;;;;4.50;1.93;;;22.30;99.90;23.90;96960.00;;;;5095224;28;20245;-87
2022/06/28 03:17:04;;;;;;;6.03;2.30;;;22.20;99.90;23.80;96978.00;;;;5097738;28;20230;-87
2022/06/28 03:19:53;;;;;;;8.13;1.80;;;22.20;99.90;23.80;96982.00;;;;5081605;28;20202;-87
2022/06/28 03:22:44;;;;;;;6.70;2.53;;;22.20;99.90;23.70;96985.00;;;;5070133;28;20223;-87
2022/06/28 03:25:32;;;;;;;2.93;2.03;;;22.10;99.90;23.60;96998.00;;;;5072213;28;20203;-88
2022/06/28 03:28:21;;;;;;;4.57;1.90;;;22.10;99.90;23.70;96984.00;;;;5064348;28;20210;-88
2022/06/28 03:31:13;;;;;;;2.67;1.87;;;22.00;99.90;23.70;96993.00;;;;5067298;28;20200;-87
2022/06/28 03:34:02;;;;;;;3.93;1.80;;;22.00;99.90;23.80;96986.00;;;;5060081;28;20319;-88
2022/06/28 03:36:51;;;;;;;3.97;1.90;;;22.00;99.90;23.70;96989.00;;;;5062079;28;20697;-87
2022/06/28 03:39:42;;;;;;;3.20;1.70;;;22.00;99.90;23.80;96988.00;;;;5069369;28;20204;-88
2022/06/28 03:42:30;;;;;;;3.50;2.10;;;22.10;99.90;23.70;96982.00;;;;5075874;28;20204;-88
2022/06/28 03:45:19;;;;;;;4.27;1.83;;;22.10;99.90;23.70;96976.00;;;;5067514;28;20211;-88
2022/06/28 03:48:09;;;;;;;3.50;1.97;;;22.00;99.90;23.80;96992.00;;;;5064823;28;20674;-88
2022/06/28 03:50:58;;;;;;;2.27;1.70;;;22.10;99.90;23.80;96996.00;;;;5069506;28;20203;-88
2022/06/28 03:53:47;;;;;;;3.00;1.70;;;22.10;99.90;23.80;96998.00;;;;5066655;28;20200;-88
2022/06/28 03:56:37;;;;;;;5.57;1.80;;;22.10;99.90;23.80;97011.00;;;;5058693;28;20224;-88
2022/06/28 03:59:26;;;;;;;3.27;2.07;;;22.10;99.90;23.80;97006.00;;;;5084531;22;20235;-87
2022/06/28 04:02:15;;;;;;;2.70;1.80;;;22.10;99.90;23.80;97019.00;;;;5073914;28;20211;-88
2022/06/28 04:05:04;;;;;;;2.60;2.23;;;22.10;99.90;23.70;97015.00;;;;5072348;28;21656;-87
2022/06/28 04:07:53;;;;;;;1.70;1.60;;;22.00;99.90;23.70;97014.00;;;;5061140;28;20591;-87
2022/06/28 04:10:42;;;;;;;3.33;2.00;;;22.10;99.90;23.60;97018.00;;;;5076874;28;20196;-88
2022/06/28 04:13:32;;;;;;;4.60;2.37;;;22.10;99.90;23.60;97023.00;;;;5051943;28;20232;-87
2022/06/28 04:16:23;;;;;;;3.00;2.10;;;22.00;99.90;23.60;97026.00;;;;5046877;28;20220;-87
2022/06/28 04:19:11;;;;;;;3.40;2.30;;;22.00;99.90;23.70;97027.00;;;;5061607;28;20193;-88
2022/06/28 04:22:00;;;;;;;10.10;3.20;;;22.00;99.90;23.70;97027.00;;;;5051430;28;20584;-86
2022/06/28 04:24:49;;;;;;;3.47;2.30;;;22.00;99.90;23.80;97025.00;;;;5051590;28;20225;-87
2022/06/28 04:27:38;;;;;;;3.40;2.47;;;22.10;99.90;23.30;97030.00;;;;5049441;28;20212;-88
2022/06/28 04:30:31;;;;;;;5.87;4.30;;;22.00;99.90;22.90;97033.00;;;;5048600;28;20232;-87
2022/06/28 04:33:20;;;;;;;3.80;2.80;;;21.90;99.90;22.40;97026.00;;;;5046900;28;20220;-87
2022/06/28 04:36:09;;;;;;;4.63;3.07;;;21.70;99.90;22.50;97042.00;;;;5050278;28;20215;-87
2022/06/28 04:38:58;;;;;;;5.10;2.73;;;21.60;99.90;22.50;97037.00;;;;5058359;28;20192;-90
2022/06/28 04:41:46;;;;;;;7.90;2.87;;;21.40;99.90;22.90;97037.00;;;;5060521;28;20201;-87
2022/06/28 04:44:38;;;;;;;6.27;3.30;;;21.40;99.90;23.50;97034.00;;;;5063492;28;20220;-87
2022/06/28 04:47:28;;;;;;;4.20;2.00;;;21.50;99.90;23.40;97046.00;;;;5063546;28;20189;-88
2022/06/28 04:50:17;;;;;;;3.27;2.97;;;21.60;99.90;23.30;97042.00;;;;5069671;28;20195;-88
2022/06/28 04:53:06;;;;;;;7.53;2.40;;;21.70;99.90;23.40;97029.00;;;;5067579;28;20223;-87
2022/06/28 04:55:55;;;;;;;5.50;2.97;;;21.80;99.90;23.60;97029.00;;;;5064802;28;20216;-88
2022/06/28 04:58:44;;;;;;;6.70;4.63;;;21.80;99.90;23.60;97024.00;;;;5060416;28;20714;-87
2022/06/28 05:01:33;;;;;;;4.63;2.63;;;22.00;99.90;23.90;97029.00;;;;5057954;28;20196;-87
2022/06/28 05:04:23;;;;;;;6.07;2.57;;;22.10;99.90;24.00;97035.00;;;;5062168;28;20232;-88
2022/06/28 05:07:12;;;;;;;3.20;2.90;;;22.20;99.90;24.40;97035.00;;;;5078183;28;20955;-88
2022/06/28 05:10:02;;;;;;;4.10;2.53;;;22.40;99.90;24.50;97035.00;;;;5062121;28;20207;-88
2022/06/28 05:12:51;;;;;;;3.10;2.33;;;22.50;99.90;24.70;97039.00;;;;5054081;28;20224;-88
2022/06/28 05:15:40;;;;;;;4.63;2.10;;;22.70;99.90;24.80;97039.00;;;;5056385;28;20575;-87
2022/06/28 05:18:29;;;;;;;1.90;1.80;;;22.80;99.90;25.00;97045.00;;;;5060716;28;20201;-87
2022/06/28 05:21:21;;;;;;;3.80;1.90;;;23.00;99.90;25.40;97043.00;;;;5085662;22;20259;-66
2022/06/28 05:24:10;;;;;;;2.30;2.03;;;23.20;99.90;25.70;97038.00;;;;5087087;28;20215;-66
2022/06/28 05:26:59;;;;;;;2.03;1.33;;;23.40;99.90;26.00;97049.00;;;;5088053;28;20241;-65
2022/06/28 05:29:47;;;;;;;2.60;2.27;;;23.60;99.90;26.20;97050.00;;;;5060701;28;20192;-66
2022/06/28 05:32:36;;;;;;;1.77;1.30;;;23.90;99.90;26.40;97057.00;;;;5069876;28;20200;-66
2022/06/28 05:35:25;;;;;;;2.30;1.03;;;24.10;99.90;26.60;97056.00;;;;5065375;28;20218;-66
2022/06/28 05:38:16;;;;;;;1.50;1.37;;;24.30;99.90;26.80;97062.00;;;;5056202;28;20271;-66
2022/06/28 05:41:04;;;;;;;2.33;1.20;;;24.50;99.90;26.80;97062.00;;;;5065557;28;20208;-66
2022/06/28 05:43:53;;;;;;;2.43;1.63;;;24.70;99.90;27.00;97064.00;;;;5058718;28;20691;-66
2022/06/28 05:46:43;;;;;;;1.80;1.57;;;24.80;99.90;27.10;97069.00;;;;5068641;28;20211;-66
2022/06/28 05:49:32;;;;;;;2.13;1.93;;;24.90;99.90;27.30;97063.00;;;;5068157;28;20771;-66
2022/06/28 05:52:21;;;;;;;1.63;1.40;;;25.10;99.90;27.40;97061.00;;;;5062674;28;20212;-66
2022/06/28 05:55:11;;;;;;;2.90;1.10;;;25.30;99.90;27.60;97071.00;;;;5064701;28;20209;-66
2022/06/28 05:58:00;;;;;;;4.43;1.60;;;25.40;99.90;27.90;97070.00;;;;5063623;28;20214;-66
2022/06/28 06:00:49;;;;;;;3.27;1.53;;;25.50;99.90;27.70;97077.00;;;;5060907;28;20247;-66
2022/06/28 06:03:38;;;;;;;4.23;2.10;;;25.70;99.90;28.20;97078.00;;;;5059717;28;20196;-66
2022/06/28 06:06:27;;;;;;;3.73;1.57;;;25.90;99.90;28.40;97079.00;;;;5057756;28;20212;-66
2022/06/28 06:09:16;;;;;;;1.93;1.63;;;26.00;99.90;28.40;97072.00;;;;5057114;28;20228;-66
2022/06/28 06:12:07;;;;;;;3.57;2.00;;;26.20;99.90;28.50;97081.00;;;;5062640;28;20213;-66
2022/06/28 06:14:58;;;;;;;4.50;2.03;;;26.30;99.90;28.60;97079.00;;;;5061748;28;20203;-66
2022/06/28 06:17:46;;;;;;;2.77;1.53;;;26.40;99.90;28.80;97090.00;;;;5060745;28;20219;-67
2022/06/28 06:20:35;;;;;;;2.40;1.47;;;26.50;99.90;28.60;97093.00;;;;5059195;28;20661;-67
2022/06/28 06:23:24;;;;;;;3.63;1.70;;;26.60;99.90;28.60;97097.00;;;;5050353;28;20241;-66
2022/06/28 06:26:13;;;;;;;3.17;1.50;;;26.60;99.90;28.60;97114.00;;;;5060010;28;20736;-66
2022/06/28 06:29:03;;;;;;;3.63;1.53;;;26.70;99.90;28.20;97105.00;;;;5055925;28;20232;-66
2022/06/28 06:31:52;;;;;;;3.20;1.47;;;26.70;99.90;28.80;97116.00;;;;5049848;28;20209;-66
2022/06/28 06:34:41;;;;;;;3.60;1.87;;;26.70;99.90;28.90;97119.00;;;;5057013;28;20232;-66
2022/06/28 06:37:29;;;;;;;3.17;1.53;;;26.80;99.90;28.90;97116.00;;;;5058802;28;20700;-66
2022/06/28 06:40:19;;;;;;;2.60;2.27;;;26.90;99.90;29.40;97128.00;;;;5065195;28;20229;-66
2022/06/28 06:43:08;;;;;;;4.70;1.40;;;27.00;99.90;29.50;97127.00;;;;5057040;28;20212;-66
2022/06/28 06:45:59;;;;;;;2.57;1.63;;;27.10;99.90;29.70;97136.00;;;;5063466;28;20237;-66
2022/06/28 06:48:47;;;;;;;3.77;1.63;;;27.30;99.90;29.80;97132.00;;;;5062657;28;20235;-66
2022/06/28 06:51:36;;;;;;;2.77;1.83;;;27.50;99.90;29.70;97141.00;;;;5058037;28;20210;-66
2022/06/28 06:54:25;;;;;;;2.10;1.23;;;27.60;99.90;29.80;97150.00;;;;5062515;28;20209;-66
2022/06/28 06:57:15;;;;;;;2.60;2.13;;;27.60;99.90;29.40;97153.00;;;;5063614;28;20216;-66
2022/06/28 07:00:09;;;;;;;2.10;1.40;;;27.60;99.80;29.70;97151.00;;;;5066608;28;20904;-66
2022/06/28 07:02:59;;;;;;;2.37;1.00;;;27.60;99.90;29.50;97150.00;;;;5061449;28;20205;-66
2022/06/28 07:05:47;;;;;;;4.20;2.00;;;27.60;99.90;29.30;97148.00;;;;5059707;28;20219;-66
2022/06/28 07:08:36;;;;;;;1.77;1.10;;;27.60;98.30;29.50;97156.00;;;;5064360;28;20227;-67
2022/06/28 07:11:25;;;;;;;4.30;1.27;;;27.50;98.00;29.80;97163.00;;;;5067212;28;20230;-66
2022/06/28 07:14:14;;;;;;;1.50;1.17;;;27.60;98.40;30.00;97168.00;;;;5060411;28;20216;-66
2022/06/28 07:17:03;;;;;;;3.37;0.90;;;27.70;99.00;29.90;97171.00;;;;5063436;28;20196;-67
2022/06/28 07:19:53;;;;;;;2.13;1.20;;;27.70;98.00;30.10;97161.00;;;;5061981;28;20209;-66
2022/06/28 07:22:42;;;;;;;1.30;0.73;;;27.80;98.00;30.10;97165.00;;;;5065258;28;20325;-67
2022/06/28 07:25:31;;;;;;;4.47;1.40;;;27.90;98.00;29.70;97172.00;;;;5064663;28;20307;-67
2022/06/28 07:28:20;;;;;;;2.63;1.30;;;27.90;96.00;30.20;97158.00;;;;5061654;28;20596;-66
2022/06/28 07:31:09;;;;;;;3.93;1.47;;;28.00;96.70;30.40;97168.00;;;;5059472;28;20209;-66
2022/06/28 07:33:57;;;;;;;2.57;1.03;;;28.10;96.60;30.50;97159.00;;;;5061180;28;20202;-66
2022/06/28 07:36:47;;;;;;;3.87;1.07;;;28.20;96.70;30.20;97164.00;;;;5057781;28;20216;-66
2022/06/28 07:39:37;;;;;;;7.90;1.90;;;28.30;96.30;30.30;97166.00;;;;5064912;28;20699;-66
2022/06/28 07:42:26;;;;;;;3.00;2.40;;;28.30;97.00;30.40;97175.00;;;;5063180;28;20207;-66
2022/06/28 07:45:15;;;;;;;2.47;1.83;;;28.30;96.50;30.60;97168.00;;;;5064987;28;20230;-66
2022/06/28 07:48:04;;;;;;;3.60;1.77;;;28.40;96.60;30.50;97173.00;;;;5059063;28;20222;-66
2022/06/28 07:54:16;;;;;;;7.67;2.77;;;28.50;95.60;30.80;97185.00;;;;5028401;28;20270;-64
2022/06/28 07:57:05;;;;;;;3.20;2.67;;;28.60;97.00;29.70;97184.00;;;;5020287;28;20719;-66
2022/06/28 07:59:54;;;;;;;6.53;2.97;;;28.60;97.00;30.50;97179.00;;;;5058557;28;20212;-67
2022/06/28 08:02:43;;;;;;;6.67;3.00;;;28.60;96.80;31.00;97187.00;;;;5061482;28;20217;-67
2022/06/28 08:05:32;;;;;;;4.27;2.50;;;28.70;96.70;31.20;97173.00;;;;5062045;28;20627;-67
2022/06/28 08:08:21;;;;;;;5.90;3.07;;;28.80;95.60;30.70;97183.00;;;;5068198;28;20219;-67
2022/06/28 08:11:12;;;;;;;4.73;3.00;;;28.90;95.10;30.90;97182.00;;;;5069955;28;20198;-67
2022/06/28 08:14:01;;;;;;;7.00;2.72;;;29.00;94.60;31.30;97183.00;;;;5065185;28;20611;-67
2022/06/28 08:16:49;;;;;;;6.83;2.77;;;29.00;94.30;31.00;97178.00;;;;5075266;28;20488;-66
2022/06/28 08:19:38;;;;;;;3.47;2.37;;;29.00;94.00;29.60;97191.00;;;;5067257;28;20207;-67
2022/06/28 08:22:27;;;;;;;5.60;2.87;;;29.00;94.10;30.40;97181.00;;;;5064199;28;20707;-67
2022/06/28 08:25:16;;;;;;;5.47;2.87;;;28.90;94.70;31.30;97177.00;;;;5058802;28;20234;-67
2022/06/28 08:28:10;;;;;;;2.57;2.10;;;29.00;95.40;29.40;97179.00;;;;5062673;28;20252;-67
2022/06/28 08:30:59;;;;;;;4.90;2.30;;;28.90;93.00;30.60;97179.00;;;;5067082;28;20640;-66
2022/06/28 08:33:47;;;;;;;2.33;1.83;;;28.90;94.00;31.10;97180.00;;;;5061086;28;20266;-67
2022/06/28 08:36:36;;;;;;;5.40;2.47;;;29.00;94.50;31.70;97183.00;;;;5060838;28;20211;-67
2022/06/28 08:39:25;;;;;;;4.83;2.67;;;29.20;94.60;31.60;97191.00;;;;5060933;28;20242;-67
2022/06/28 08:42:20;;;;;;;2.77;2.07;;;29.30;93.60;30.70;97188.00;;;;5064206;28;20591;-68
2022/06/28 08:45:12;;;;;;;7.88;2.55;;;29.30;92.30;31.10;97182.00;;;;5073491;28;20684;-67
2022/06/28 08:48:13;;;;;;;6.20;2.27;;;29.30;90.40;31.10;97183.00;;;;5061954;28;20225;-67
2022/06/28 08:51:03;;;;;;;2.93;1.93;;;29.30;91.20;30.80;97180.00;;;;5062122;28;20209;-67
2022/06/28 08:53:52;;;;;;;3.37;1.80;;;29.10;91.40;31.60;97179.00;;;;5067117;28;20744;-67
2022/06/28 08:56:41;;;;;;;1.97;1.60;;;29.20;92.20;32.10;97176.00;;;;5056332;28;20200;-67
2022/06/28 08:59:32;;;;;;;2.77;2.00;;;29.40;92.50;31.30;97182.00;;;;5067204;28;20242;-67
2022/06/28 09:02:23;;;;;;;3.45;1.80;;;29.50;91.60;31.90;97183.00;;;;5061112;28;20203;-67
2022/06/28 09:05:13;;;;;;;6.15;3.30;;;29.70;92.10;31.90;97173.00;;;;5068117;28;20696;-67
2022/06/28 09:08:02;;;;;;;3.55;2.10;;;29.70;91.80;32.40;97180.00;;;;5069623;28;20234;-67
2022/06/28 09:10:51;;;;;;;4.68;2.47;;;30.00;92.00;32.80;97174.00;;;;5069714;28;20217;-67
2022/06/28 09:13:42;;;;;;;4.45;2.28;;;30.20;91.80;32.90;97167.00;;;;5067968;28;20559;-67
2022/06/28 09:16:31;;;;;;;4.63;2.50;;;30.40;91.50;33.10;97163.00;;;;5066395;28;20205;-67
2022/06/28 09:19:34;;;;;;;6.28;2.40;;;30.60;91.00;33.00;97172.00;;;;5067009;28;20236;-67
2022/06/28 09:22:36;;;;;;;4.57;2.30;;;30.80;90.70;32.80;97165.00;;;;5063646;28;20214;-67
2022/06/28 09:25:30;;;;;;;4.03;3.30;;;31.20;90.90;32.60;97170.00;;;;5061558;28;20616;-67
2022/06/28 09:28:31;;;;;;;5.10;2.35;;;30.80;88.60;33.40;97169.00;;;;5063992;28;20221;-67
2022/06/28 09:31:23;;;;;;;3.70;2.05;;;30.90;89.40;33.60;97162.00;;;;5063231;28;20210;-66
2022/06/28 09:34:13;;;;;;;4.00;2.80;;;31.10;90.00;33.90;97163.00;;;;5067815;28;20206;-66
2022/06/28 09:37:04;;;;;;;3.78;1.92;;;31.30;90.20;33.50;97149.00;;;;5063421;28;20209;-67
2022/06/28 09:39:52;;;;;;;2.03;1.80;;;31.40;86.20;33.90;97141.00;;;;5061445;28;20205;-66
2022/06/28 09:42:42;;;;;;;2.55;1.58;;;31.50;85.80;34.00;97124.00;;;;5061251;28;20210;-66
2022/06/28 09:45:31;;;;;;;2.53;1.95;;;31.60;82.60;34.30;97126.00;;;;5063043;28;20201;-66
2022/06/28 09:48:22;;;;;;;2.25;1.92;;;31.80;82.40;34.20;97118.00;;;;5066120;28;20227;-66
2022/06/28 09:51:12;;;;;;;3.17;1.35;;;31.90;81.60;34.30;97125.00;;;;5063714;28;20200;-67
2022/06/28 09:54:04;;;;;;;1.92;1.60;;;32.00;80.10;34.20;97124.00;;;;5066663;28;20207;-67
2022/06/28 09:57:13;;;;;;;3.85;2.40;;;32.10;80.10;34.70;97122.00;;;;5064754;28;20193;-66
2022/06/28 10:00:04;;;;;;;3.97;2.50;;;32.20;80.30;33.90;97127.00;;;;5066531;28;20220;-66
2022/06/28 10:02:56;;;;;;;4.38;2.65;;;32.30;75.30;32.00;97110.00;;;;5065335;28;20213;-68
2022/06/28 10:05:46;;;;;;;2.88;2.60;;;31.90;73.20;32.10;97131.00;;;;5063498;28;20204;-67
2022/06/28 10:08:34;;;;;;;4.28;2.35;;;31.40;76.80;32.80;97101.00;;;;5067452;28;20616;-67
2022/06/28 10:11:25;;;;;;;8.43;2.85;;;31.20;77.90;34.10;97107.00;;;;5065744;28;20215;-67
2022/06/28 10:17:54;;;;;;;4.57;3.20;;;31.70;79.00;32.10;97092.00;;;;5065696;28;20619;-68
2022/06/28 10:20:44;;;;;;;4.10;3.65;;;31.40;79.20;33.10;97122.00;;;;5060880;28;20202;-67
2022/06/28 10:23:37;;;;;;;3.80;3.50;;;31.40;82.80;33.70;97079.00;;;;5066573;28;20206;-67
2022/06/28 10:26:27;;;;;;;3.15;2.85;;;31.40;83.00;34.70;97092.00;;;;5060268;28;20247;-66
2022/06/28 10:29:16;;;;;;;3.53;3.25;;;31.80;84.10;34.90;97094.00;;;;5062953;28;20693;-66
2022/06/28 10:32:39;;;;;;;4.38;3.42;;;32.10;81.90;35.30;97076.00;;;;5069000;28;20206;-65
2022/06/28 10:35:56;;;;;;;3.83;3.42;;;32.40;80.60;35.50;97072.00;;;;5061479;28;20205;-66
2022/06/28 10:39:15;;;;;;;5.15;4.18;;;32.80;81.60;35.60;97063.00;;;;5062757;28;20230;-66
2022/06/28 10:42:13;;;;;;;6.05;3.42;;;33.10;80.80;35.70;97056.00;;;;5059716;28;20204;-66
2022/06/28 10:45:02;;;;;;;5.43;3.70;;;33.30;81.10;35.80;97095.00;;;;5062546;28;20217;-66
2022/06/28 10:48:10;;;;;;;6.00;3.92;;;33.30;81.40;35.30;97078.00;;;;5058864;28;20234;-67
2022/06/28 10:51:01;;;;;;;3.88;3.63;;;33.20;80.00;34.80;97091.00;;;;5063585;28;20210;-67
2022/06/28 10:54:04;;;;;;;4.47;3.28;;;33.10;79.30;35.70;97082.00;;;;5062657;28;20214;-67
2022/06/28 10:56:54;;;;;;;10.20;6.13;;;33.20;80.00;36.40;97057.00;;;;5064551;28;20206;-67
2022/06/28 10:59:49;;;;;;;4.57;3.00;;;33.40;80.60;36.30;97089.00;;;;5064074;28;20203;-67
2022/06/28 11:03:00;;;;;;;4.03;3.28;;;33.60;79.50;36.20;97090.00;;;;5065434;28;20234;-67
2022/06/28 11:05:53;;;;;;;4.95;3.28;;;33.70;79.10;35.80;97100.00;;;;5066783;28;20208;-66
2022/06/28 11:08:58;;;;;;;3.75;3.20;;;33.60;78.90;35.40;97042.00;;;;5064236;28;20227;-66
2022/06/28 11:12:10;;;;;;;5.55;3.50;;;33.60;78.90;30.70;97034.00;;;;5068620;28;20217;-66
2022/06/28 11:15:04;;;;;;;5.93;4.35;;;32.50;75.70;32.50;97054.00;;;;5067256;28;20213;-67
2022/06/28 11:17:53;;;;;;;4.18;3.42;;;31.60;79.30;34.30;97094.00;;;;5061446;28;20218;-64
2022/06/28 11:20:42;;;;;;;3.72;3.28;;;31.70;82.10;32.80;97107.00;;;;5064392;28;20583;-67
2022/06/28 11:23:32;;;;;;;5.20;3.60;;;31.60;82.00;31.90;97121.00;;;;5066444;28;20203;-68
2022/06/28 11:29:27;;;;;;;4.47;3.10;;;30.90;83.20;31.20;97122.00;;;;5063973;28;20222;-67
2022/06/28 11:32:20;;;;;;;4.65;3.78;;;30.50;85.50;31.90;97120.00;;;;5065229;28;20204;-67
2022/06/28 11:35:12;;;;;;;7.18;3.55;;;30.20;86.20;32.30;97118.00;;;;5062440;28;20205;-67
2022/06/28 11:38:04;;;;;;;5.00;3.38;;;30.20;87.00;32.60;97111.00;;;;5066120;28;20218;-67
2022/06/28 11:40:54;;;;;;;4.32;3.58;;;30.30;87.60;32.90;97108.00;;;;5062292;28;20505;-67
2022/06/28 11:43:44;;;;;;;6.32;3.97;;;30.40;88.40;32.50;97106.00;;;;5067641;28;20587;-67
2022/06/28 11:46:36;;;;;;;4.15;3.30;;;30.60;86.90;33.90;97090.00;;;;5071152;28;20239;-67
2022/06/28 11:49:31;;;;;;;4.18;3.70;;;30.90;87.80;33.90;97099.00;;;;5067615;28;20233;-67
2022/06/28 11:52:20;;;;;;;6.68;4.72;;;31.10;87.90;33.80;97112.00;;;;5067018;28;20205;-67
2022/06/28 11:55:09;;;;;;;6.03;3.83;;;31.30;87.00;33.70;97105.00;;;;5068324;28;20345;-67
2022/06/28 11:58:17;;;;;;;3.97;3.58;;;31.40;86.10;32.70;97112.00;;;;5065312;28;20233;-67
2022/06/28 12:01:09;;;;;;;8.13;3.97;;;31.30;82.10;32.20;97104.00;;;;5069280;28;20207;-67
2022/06/28 12:04:02;;;;;;;4.50;4.20;;;31.10;83.10;32.20;97103.00;;;;5064284;28;20208;-67
2022/06/28 12:06:52;;;;;;;7.47;4.03;;;30.80;81.60;31.80;97095.00;;;;5065526;28;20745;-67
2022/06/28 12:09:46;;;;;;;3.92;3.58;;;30.60;82.40;31.90;97091.00;;;;5064025;28;20705;-67
2022/06/28 12:12:43;;;;;;;5.20;4.38;;;30.40;84.70;32.60;97087.00;;;;5062919;28;20590;-66
2022/06/28 12:15:33;;;;;;;5.60;4.40;;;30.40;87.20;32.60;97090.00;;;;5068215;28;20205;-66
2022/06/28 12:18:22;;;;;;;4.63;4.32;;;30.40;89.00;32.40;97099.00;;;;5065373;28;20600;-67
2022/06/28 12:21:14;;;;;;;5.25;4.35;;;30.40;86.10;30.80;97104.00;;;;5065219;28;20219;-68
2022/06/28 12:24:05;;;;;;;6.50;4.65;;;30.20;85.50;31.20;97101.00;;;;5065805;28;20206;-67
2022/06/28 12:26:54;;;;;;;5.65;4.43;;;30.00;87.50;31.80;97099.00;;;;5064909;28;20201;-67
2022/06/28 12:29:43;;;;;;;5.97;4.28;;;29.80;89.20;32.10;97098.00;;;;5058720;28;20214;-67
2022/06/28 12:32:32;;;;;;;5.18;4.68;;;29.90;90.30;32.20;97092.00;;;;5060693;28;20205;-67
2022/06/28 12:35:39;;;;;;;4.65;3.78;;;30.00;90.40;32.20;97085.00;;;;5061452;28;20595;-67
2022/06/28 12:38:28;;;;;;;4.22;3.90;;;30.10;89.90;33.20;97058.00;;;;5060773;28;20229;-67
2022/06/28 12:41:18;;;;;;;6.88;4.47;;;30.40;88.70;33.10;97051.00;;;;5061000;28;20201;-67
2022/06/28 12:44:07;;;;;;;5.25;4.82;;;30.70;87.90;33.40;97063.00;;;;5065030;28;20209;-67
2022/06/28 12:46:56;;;;;;;4.22;3.83;;;30.80;88.40;33.50;97029.00;;;;5064866;28;20206;-67
2022/06/28 12:49:44;;;;;;;4.80;3.42;;;31.00;87.90;34.20;97015.00;;;;5066793;28;20615;-67
2022/06/28 12:52:36;;;;;;;6.22;3.75;;;31.40;88.90;35.40;97021.00;;;;5065346;28;20207;-69
2022/06/28 12:55:25;;;;;;;3.80;3.47;;;32.10;85.80;34.70;97067.00;;;;5063380;28;20195;-67